Time;durP1;ratioP1;P1;durP2;ratioP2;P2;SDS_P1;SDS_P2;PMS_P1;PMS_P2;Temp;Humidity;BMP_temperature;BMP_pressure;BME280_temperature;BME280_humidity;BME280_pressure;Samples;Min_cycle;Max_cycle;Signal;HPM_P1;HPM_P2
2023/06/25 00:02:05;;;;;;;8.73;5.40;;;;;;;;;;5077590;28;20564;-52
2023/06/25 00:04:32;;;;;;;6.90;4.63;;;;;;;;;;5077988;28;20405;-52
2023/06/25 00:06:58;;;;;;;6.25;4.22;;;;;;;;;;5076963;28;20064;-51
2023/06/25 00:09:24;;;;;;;7.03;4.80;;;;;;;;;;5077319;28;20044;-51
2023/06/25 00:11:50;;;;;;;11.98;4.88;;;;;;;;;;5077215;28;20051;-52
2023/06/25 00:14:16;;;;;;;8.38;4.55;;;;;;;;;;5077521;28;20037;-51
2023/06/25 00:16:42;;;;;;;7.20;4.38;;;;;;;;;;5076344;28;20050;-51
2023/06/25 00:19:08;;;;;;;7.30;4.82;;;;;;;;;;5077292;28;20044;-51
2023/06/25 00:21:35;;;;;;;7.18;5.47;;;;;;;;;;5076119;28;20064;-52
2023/06/25 00:24:01;;;;;;;6.90;4.25;;;;;;;;;;5076314;27;20137;-51
2023/06/25 00:26:27;;;;;;;7.70;4.95;;;;;;;;;;5075923;28;20037;-52
2023/06/25 00:28:54;;;;;;;6.47;5.05;;;;;;;;;;5077410;28;20044;-51
2023/06/25 00:31:20;;;;;;;9.77;6.60;;;;;;;;;;5076695;28;20053;-52
2023/06/25 00:33:49;;;;;;;9.90;4.95;;;;;;;;;;5076735;28;20044;-51
2023/06/25 00:36:15;;;;;;;7.22;4.70;;;;;;;;;;5076944;28;20083;-52
2023/06/25 00:38:42;;;;;;;9.45;5.00;;;;;;;;;;5078107;28;20098;-52
2023/06/25 00:41:09;;;;;;;6.57;4.75;;;;;;;;;;5073192;28;20504;-51
2023/06/25 00:43:36;;;;;;;7.75;4.65;;;;;;;;;;5092841;28;20075;-52
2023/06/25 00:46:03;;;;;;;9.55;6.05;;;;;;;;;;5077431;28;20160;-52
2023/06/25 00:48:29;;;;;;;7.47;4.63;;;;;;;;;;5077045;28;20041;-52
2023/06/25 00:51:00;;;;;;;9.05;5.40;;;;;;;;;;5077776;28;20075;-52
2023/06/25 00:53:28;;;;;;;9.23;5.65;;;;;;;;;;5077321;28;20045;-52
2023/06/25 00:55:54;;;;;;;7.65;5.00;;;;;;;;;;5077605;28;20045;-52
2023/06/25 00:58:20;;;;;;;7.22;4.63;;;;;;;;;;5075857;28;20048;-52
2023/06/25 01:00:47;;;;;;;6.90;4.55;;;;;;;;;;5077377;28;20062;-51
2023/06/25 01:03:24;;;;;;;8.75;5.40;;;;;;;;;;5076038;28;20091;-52
2023/06/25 01:05:53;;;;;;;6.60;4.78;;;;;;;;;;5076923;28;20476;-52
2023/06/25 01:08:21;;;;;;;8.38;5.00;;;;;;;;;;5076619;28;20040;-52
2023/06/25 01:10:47;;;;;;;7.57;4.82;;;;;;;;;;5076988;28;20047;-52
2023/06/25 01:13:13;;;;;;;7.32;4.82;;;;;;;;;;5075953;28;20044;-51
2023/06/25 01:15:40;;;;;;;7.38;4.85;;;;;;;;;;5076392;28;20147;-52
2023/06/25 01:18:07;;;;;;;9.05;5.88;;;;;;;;;;5077247;28;20048;-51
2023/06/25 01:20:38;;;;;;;7.75;6.22;;;;;;;;;;5076952;28;20044;-52
2023/06/25 01:23:04;;;;;;;12.03;5.33;;;;;;;;;;5076522;28;20056;-52
2023/06/25 01:25:30;;;;;;;7.22;4.80;;;;;;;;;;5076176;28;20064;-51
2023/06/25 01:27:56;;;;;;;12.00;5.93;;;;;;;;;;5075833;28;20048;-51
2023/06/25 01:30:25;;;;;;;9.98;5.47;;;;;;;;;;5076670;28;20055;-51
2023/06/25 01:32:51;;;;;;;6.55;4.65;;;;;;;;;;5075683;28;20112;-51
2023/06/25 01:35:18;;;;;;;7.20;4.78;;;;;;;;;;5076463;28;20685;-52
2023/06/25 01:37:44;;;;;;;7.78;5.28;;;;;;;;;;5075825;28;20080;-52
2023/06/25 01:40:10;;;;;;;11.15;5.80;;;;;;;;;;5068965;28;20062;-52
2023/06/25 01:42:37;;;;;;;7.97;4.45;;;;;;;;;;5075709;28;20100;-52
2023/06/25 01:45:04;;;;;;;8.98;4.47;;;;;;;;;;5077160;28;20520;-52
2023/06/25 01:47:30;;;;;;;9.00;5.00;;;;;;;;;;5094829;27;20527;-51
2023/06/25 01:49:56;;;;;;;9.35;5.90;;;;;;;;;;5079556;28;20120;-51
2023/06/25 01:52:22;;;;;;;8.88;4.93;;;;;;;;;;5080314;28;20132;-52
2023/06/25 01:54:48;;;;;;;9.85;4.97;;;;;;;;;;5078926;28;20051;-51
2023/06/25 01:57:14;;;;;;;6.65;4.75;;;;;;;;;;5079584;28;20551;-52
2023/06/25 01:59:43;;;;;;;8.85;5.43;;;;;;;;;;5078417;28;20044;-52
2023/06/25 02:02:09;;;;;;;8.20;6.45;;;;;;;;;;5079948;28;20046;-52
2023/06/25 02:04:35;;;;;;;8.65;6.15;;;;;;;;;;5079026;28;20554;-51
2023/06/25 02:07:01;;;;;;;8.20;5.50;;;;;;;;;;5078718;28;20576;-52
2023/06/25 02:09:27;;;;;;;7.53;5.25;;;;;;;;;;5079630;28;20097;-52
2023/06/25 02:11:56;;;;;;;10.93;5.30;;;;;;;;;;5078476;28;20098;-52
2023/06/25 02:14:22;;;;;;;10.52;5.43;;;;;;;;;;5080300;28;20767;-52
2023/06/25 02:16:48;;;;;;;9.52;5.28;;;;;;;;;;5079466;28;20123;-51
2023/06/25 02:19:14;;;;;;;8.93;5.55;;;;;;;;;;5080114;28;20056;-51
2023/06/25 02:21:40;;;;;;;7.97;5.82;;;;;;;;;;5079253;28;21446;-52
2023/06/25 02:24:06;;;;;;;8.63;5.70;;;;;;;;;;5079520;28;20057;-51
2023/06/25 02:26:32;;;;;;;7.95;5.32;;;;;;;;;;5077665;28;20102;-52
2023/06/25 02:28:58;;;;;;;9.27;6.05;;;;;;;;;;5080187;28;20651;-51
2023/06/25 02:31:24;;;;;;;9.13;4.50;;;;;;;;;;5079869;28;20081;-51
2023/06/25 02:33:50;;;;;;;7.53;4.97;;;;;;;;;;5079201;28;20040;-51
2023/06/25 02:36:17;;;;;;;8.93;5.82;;;;;;;;;;5079103;28;20318;-52
2023/06/25 02:38:43;;;;;;;7.15;5.32;;;;;;;;;;5080236;28;20037;-52
2023/06/25 02:41:09;;;;;;;9.55;5.97;;;;;;;;;;5078943;28;20032;-51
2023/06/25 02:43:35;;;;;;;10.25;5.97;;;;;;;;;;5078338;28;20039;-52
2023/06/25 02:46:01;;;;;;;10.05;5.60;;;;;;;;;;5074957;28;20044;-51
2023/06/25 02:48:27;;;;;;;7.60;5.50;;;;;;;;;;5078089;28;20045;-52
2023/06/25 02:50:53;;;;;;;7.80;5.22;;;;;;;;;;5078852;28;20549;-51
2023/06/25 02:53:19;;;;;;;11.43;6.22;;;;;;;;;;5078929;28;20649;-52
2023/06/25 02:55:45;;;;;;;8.10;6.22;;;;;;;;;;5077747;28;20041;-52
2023/06/25 02:58:11;;;;;;;10.20;6.32;;;;;;;;;;5078569;28;20036;-52
2023/06/25 03:00:37;;;;;;;8.15;5.78;;;;;;;;;;5079054;28;20044;-51
2023/06/25 03:03:04;;;;;;;10.95;5.93;;;;;;;;;;5078780;28;20119;-52
2023/06/25 03:05:30;;;;;;;10.57;6.93;;;;;;;;;;5077417;28;20041;-52
2023/06/25 03:07:57;;;;;;;10.07;6.28;;;;;;;;;;5078803;28;20090;-52
2023/06/25 03:10:24;;;;;;;12.10;5.78;;;;;;;;;;5078585;28;20126;-51
2023/06/25 03:12:53;;;;;;;7.43;5.00;;;;;;;;;;5094426;27;20477;-51
2023/06/25 03:15:19;;;;;;;8.95;6.35;;;;;;;;;;5078326;28;20091;-52
2023/06/25 03:17:45;;;;;;;10.68;4.90;;;;;;;;;;5078763;28;20044;-51
2023/06/25 03:20:12;;;;;;;9.40;5.28;;;;;;;;;;5078422;28;20098;-52
2023/06/25 03:22:38;;;;;;;7.93;5.35;;;;;;;;;;5077720;28;20044;-51
2023/06/25 03:25:05;;;;;;;12.27;6.28;;;;;;;;;;5077987;28;20783;-51
2023/06/25 03:27:31;;;;;;;10.07;5.32;;;;;;;;;;5078307;28;20044;-52
2023/06/25 03:29:57;;;;;;;11.68;6.45;;;;;;;;;;5078852;28;20120;-52
2023/06/25 03:32:23;;;;;;;7.93;4.95;;;;;;;;;;5078038;28;21223;-52
2023/06/25 03:34:49;;;;;;;11.90;5.78;;;;;;;;;;5077920;28;20595;-51
2023/06/25 03:37:15;;;;;;;7.80;6.25;;;;;;;;;;5077407;28;20044;-51
2023/06/25 03:39:41;;;;;;;15.10;6.38;;;;;;;;;;5078155;28;20576;-52
2023/06/25 03:42:07;;;;;;;10.13;6.70;;;;;;;;;;5078224;28;20048;-52
2023/06/25 03:44:33;;;;;;;10.07;5.70;;;;;;;;;;5078519;28;20081;-52
2023/06/25 03:47:00;;;;;;;9.63;5.88;;;;;;;;;;5077409;28;20095;-51
2023/06/25 03:49:26;;;;;;;12.98;6.18;;;;;;;;;;5077824;28;20055;-51
2023/06/25 03:51:52;;;;;;;10.93;5.95;;;;;;;;;;5070235;28;20524;-52
2023/06/25 03:54:18;;;;;;;10.15;5.95;;;;;;;;;;5077869;28;20040;-52
2023/06/25 03:56:44;;;;;;;10.10;5.95;;;;;;;;;;5078336;28;20094;-51
2023/06/25 03:59:10;;;;;;;9.50;6.55;;;;;;;;;;5078815;28;20586;-51
2023/06/25 04:01:36;;;;;;;9.85;5.38;;;;;;;;;;5077275;28;20036;-52
2023/06/25 04:04:03;;;;;;;7.68;6.03;;;;;;;;;;5078939;28;20401;-52
2023/06/25 04:06:29;;;;;;;9.80;5.45;;;;;;;;;;5093450;27;20037;-52
2023/06/25 04:08:55;;;;;;;9.27;5.20;;;;;;;;;;5078574;28;20043;-52
2023/06/25 04:11:21;;;;;;;8.85;5.53;;;;;;;;;;5078194;28;20298;-52
2023/06/25 04:13:47;;;;;;;8.05;5.50;;;;;;;;;;5078540;28;20551;-52
2023/06/25 04:16:13;;;;;;;8.77;6.25;;;;;;;;;;5077999;28;20037;-51
2023/06/25 04:18:41;;;;;;;9.30;6.38;;;;;;;;;;5077941;28;20543;-52
2023/06/25 04:21:07;;;;;;;9.52;6.07;;;;;;;;;;5077932;28;20044;-52
2023/06/25 04:23:34;;;;;;;8.85;5.03;;;;;;;;;;5077289;28;20535;-52
2023/06/25 04:26:00;;;;;;;9.02;5.55;;;;;;;;;;5077286;28;20115;-51
2023/06/25 04:28:26;;;;;;;9.00;5.57;;;;;;;;;;5077568;28;20119;-51
2023/06/25 04:30:52;;;;;;;12.80;5.80;;;;;;;;;;5076792;28;20064;-51
2023/06/25 04:33:20;;;;;;;8.32;5.95;;;;;;;;;;5077474;28;20123;-51
2023/06/25 04:35:46;;;;;;;8.85;5.32;;;;;;;;;;5076848;28;20593;-52
2023/06/25 04:38:12;;;;;;;9.07;5.80;;;;;;;;;;5077687;28;20088;-52
2023/06/25 04:40:38;;;;;;;9.20;5.38;;;;;;;;;;5076568;28;20051;-52
2023/06/25 04:43:04;;;;;;;12.88;5.22;;;;;;;;;;5077106;28;20041;-51
2023/06/25 04:45:30;;;;;;;14.02;6.63;;;;;;;;;;5077066;28;20047;-51
2023/06/25 04:47:56;;;;;;;8.90;5.45;;;;;;;;;;5077228;28;20055;-51
2023/06/25 04:50:22;;;;;;;7.35;5.55;;;;;;;;;;5077293;28;20048;-51
2023/06/25 04:52:48;;;;;;;11.68;6.50;;;;;;;;;;5067813;28;20045;-51
2023/06/25 04:55:14;;;;;;;8.05;5.72;;;;;;;;;;5091983;27;20040;-51
2023/06/25 04:57:40;;;;;;;8.15;5.75;;;;;;;;;;5077570;28;20570;-51
2023/06/25 05:00:07;;;;;;;8.57;5.20;;;;;;;;;;5076065;28;20041;-52
2023/06/25 05:02:34;;;;;;;9.85;5.30;;;;;;;;;;5092209;27;20061;-51
2023/06/25 05:05:00;;;;;;;9.05;6.38;;;;;;;;;;5075854;28;20145;-52
2023/06/25 05:07:26;;;;;;;8.57;4.63;;;;;;;;;;5077803;28;20037;-52
2023/06/25 05:09:52;;;;;;;9.18;5.50;;;;;;;;;;5076459;28;20582;-52
2023/06/25 05:12:18;;;;;;;10.57;5.22;;;;;;;;;;5077245;28;20032;-52
2023/06/25 05:14:44;;;;;;;8.07;4.90;;;;;;;;;;5075996;28;20880;-52
2023/06/25 05:17:10;;;;;;;7.07;5.05;;;;;;;;;;5077155;28;20810;-51
2023/06/25 05:19:36;;;;;;;6.90;5.07;;;;;;;;;;5076636;28;20056;-51
2023/06/25 05:22:04;;;;;;;25.98;6.03;;;;;;;;;;5080248;28;20128;-52
2023/06/25 05:24:31;;;;;;;7.80;5.18;;;;;;;;;;5079253;28;20048;-52
2023/06/25 05:26:57;;;;;;;9.07;4.82;;;;;;;;;;5080535;28;20047;-51
2023/06/25 05:29:23;;;;;;;7.15;4.30;;;;;;;;;;5079915;28;20099;-52
2023/06/25 05:31:49;;;;;;;9.07;5.72;;;;;;;;;;5080190;28;20040;-52
2023/06/25 05:34:15;;;;;;;10.85;5.20;;;;;;;;;;5079954;28;20040;-51
2023/06/25 05:36:41;;;;;;;7.28;5.30;;;;;;;;;;5072718;28;20621;-51
2023/06/25 05:39:07;;;;;;;9.43;5.07;;;;;;;;;;5080095;28;20098;-52
2023/06/25 05:41:37;;;;;;;7.22;4.90;;;;;;;;;;5095735;27;20141;-52
2023/06/25 05:44:03;;;;;;;8.60;5.45;;;;;;;;;;5079889;28;20111;-52
2023/06/25 05:46:29;;;;;;;6.60;4.60;;;;;;;;;;5096216;27;20050;-51
2023/06/25 05:48:55;;;;;;;6.65;4.65;;;;;;;;;;5079042;28;20049;-52
2023/06/25 05:51:21;;;;;;;7.63;4.72;;;;;;;;;;5080268;28;20538;-52
2023/06/25 05:53:50;;;;;;;6.65;4.13;;;;;;;;;;5079869;28;20196;-52
2023/06/25 05:56:16;;;;;;;8.85;5.45;;;;;;;;;;5080041;28;20037;-52
2023/06/25 05:58:42;;;;;;;7.75;4.88;;;;;;;;;;5078749;28;20122;-51
2023/06/25 06:01:09;;;;;;;7.47;4.90;;;;;;;;;;5079038;28;20045;-52
2023/06/25 06:03:35;;;;;;;9.68;5.10;;;;;;;;;;5078557;28;20091;-51
2023/06/25 06:06:04;;;;;;;6.85;4.45;;;;;;;;;;5094744;27;20040;-52
2023/06/25 06:08:30;;;;;;;8.65;4.28;;;;;;;;;;5079219;28;20052;-52
2023/06/25 06:10:56;;;;;;;8.38;4.25;;;;;;;;;;5079397;28;20037;-52
2023/06/25 06:13:22;;;;;;;5.95;3.92;;;;;;;;;;5095138;27;20041;-52
2023/06/25 06:15:48;;;;;;;10.57;3.90;;;;;;;;;;5078967;28;20581;-51
2023/06/25 06:18:14;;;;;;;5.32;4.07;;;;;;;;;;5078702;28;20644;-51
2023/06/25 06:20:40;;;;;;;11.45;4.88;;;;;;;;;;5078765;28;20155;-51
2023/06/25 06:23:06;;;;;;;5.70;3.72;;;;;;;;;;5080038;28;20080;-51
2023/06/25 06:25:32;;;;;;;8.35;4.50;;;;;;;;;;5079003;28;20044;-51
2023/06/25 06:27:58;;;;;;;10.52;4.97;;;;;;;;;;5078800;28;20138;-51
2023/06/25 06:30:24;;;;;;;6.72;4.90;;;;;;;;;;5079306;28;20108;-51
2023/06/25 06:32:50;;;;;;;8.43;4.53;;;;;;;;;;5077617;28;20037;-51
2023/06/25 06:35:17;;;;;;;8.40;4.85;;;;;;;;;;5079328;28;20506;-51
2023/06/25 06:37:43;;;;;;;6.97;3.80;;;;;;;;;;5078516;28;20045;-51
2023/06/25 06:40:09;;;;;;;9.70;4.68;;;;;;;;;;5078167;28;20036;-51
2023/06/25 06:42:35;;;;;;;8.57;4.30;;;;;;;;;;5079031;28;20041;-51
2023/06/25 06:45:01;;;;;;;7.63;4.43;;;;;;;;;;5078698;28;20084;-51
2023/06/25 06:47:27;;;;;;;6.93;4.10;;;;;;;;;;5094307;27;20049;-51
2023/06/25 06:49:53;;;;;;;6.53;3.67;;;;;;;;;;5078457;28;20095;-51
2023/06/25 06:52:22;;;;;;;7.75;4.35;;;;;;;;;;5079269;28;20037;-51
2023/06/25 06:54:48;;;;;;;6.70;4.90;;;;;;;;;;5078571;28;20056;-51
2023/06/25 06:57:14;;;;;;;6.25;4.18;;;;;;;;;;5078515;28;20439;-51
2023/06/25 06:59:40;;;;;;;8.77;4.97;;;;;;;;;;5078322;28;20087;-51
2023/06/25 07:02:06;;;;;;;5.88;4.20;;;;;;;;;;5078304;28;20041;-51
2023/06/25 07:04:32;;;;;;;6.80;4.45;;;;;;;;;;5094875;27;20036;-51
2023/06/25 07:06:58;;;;;;;7.22;4.07;;;;;;;;;;5078390;28;20154;-51
2023/06/25 07:09:25;;;;;;;6.95;3.95;;;;;;;;;;5078859;28;20091;-51
2023/06/25 07:11:51;;;;;;;12.10;4.63;;;;;;;;;;5078956;28;20087;-51
2023/06/25 07:14:17;;;;;;;7.47;4.78;;;;;;;;;;5079113;28;20048;-52
2023/06/25 07:16:44;;;;;;;5.57;3.95;;;;;;;;;;5078630;28;20059;-51
2023/06/25 07:19:10;;;;;;;11.18;4.30;;;;;;;;;;5070785;28;20048;-51
2023/06/25 07:21:37;;;;;;;13.13;4.32;;;;;;;;;;5093604;27;20040;-51
2023/06/25 07:24:03;;;;;;;6.63;3.97;;;;;;;;;;5078407;28;20087;-51
2023/06/25 07:26:29;;;;;;;8.77;4.35;;;;;;;;;;5078722;28;20558;-51
2023/06/25 07:28:55;;;;;;;8.57;4.22;;;;;;;;;;5077881;28;20113;-51
2023/06/25 07:31:21;;;;;;;6.63;3.92;;;;;;;;;;5079262;28;20044;-51
2023/06/25 07:33:47;;;;;;;6.80;5.00;;;;;;;;;;5078491;28;20562;-51
2023/06/25 07:36:14;;;;;;;5.80;4.40;;;;;;;;;;5078660;28;20047;-51
2023/06/25 07:38:40;;;;;;;7.53;3.85;;;;;;;;;;5068827;28;20052;-54
2023/06/25 07:41:06;;;;;;;6.00;4.50;;;;;;;;;;5078882;28;20047;-51
2023/06/25 07:43:32;;;;;;;7.78;4.40;;;;;;;;;;5076904;28;20523;-52
2023/06/25 07:45:58;;;;;;;10.00;4.45;;;;;;;;;;5077812;28;20040;-51
2023/06/25 07:48:24;;;;;;;5.95;3.97;;;;;;;;;;5093329;27;20053;-51
2023/06/25 07:50:52;;;;;;;5.90;3.95;;;;;;;;;;5078539;28;20036;-51
2023/06/25 07:53:18;;;;;;;6.38;4.38;;;;;;;;;;5092590;27;20131;-51
2023/06/25 07:55:45;;;;;;;7.05;3.85;;;;;;;;;;5077567;28;20669;-51
2023/06/25 07:58:11;;;;;;;6.90;4.20;;;;;;;;;;5077849;28;20059;-51
2023/06/25 08:00:37;;;;;;;6.03;3.90;;;;;;;;;;5077832;28;20536;-51
2023/06/25 08:03:03;;;;;;;6.43;4.00;;;;;;;;;;5077480;28;20542;-51
2023/06/25 08:05:30;;;;;;;6.05;3.55;;;;;;;;;;5077639;28;20116;-51
2023/06/25 08:07:56;;;;;;;7.60;4.15;;;;;;;;;;5077620;28;20041;-51
2023/06/25 08:10:23;;;;;;;6.22;4.53;;;;;;;;;;5092857;27;20040;-51
2023/06/25 08:12:49;;;;;;;6.50;4.40;;;;;;;;;;5076646;28;20059;-51
2023/06/25 08:15:16;;;;;;;9.82;4.18;;;;;;;;;;5077895;28;20320;-51
2023/06/25 08:17:42;;;;;;;8.20;4.35;;;;;;;;;;5076589;28;20690;-51
2023/06/25 08:20:08;;;;;;;8.25;3.95;;;;;;;;;;5078156;28;20047;-51
2023/06/25 08:22:34;;;;;;;5.72;4.18;;;;;;;;;;5077169;28;20046;-51
2023/06/25 08:25:00;;;;;;;4.20;3.35;;;;;;;;;;5077364;28;20056;-51
2023/06/25 08:27:26;;;;;;;6.60;3.75;;;;;;;;;;5077836;28;20032;-51
2023/06/25 08:29:52;;;;;;;8.30;4.53;;;;;;;;;;5077784;28;20095;-51
2023/06/25 08:32:18;;;;;;;6.03;3.97;;;;;;;;;;5077382;28;20055;-51
2023/06/25 08:34:44;;;;;;;6.75;3.25;;;;;;;;;;5077903;28;20098;-51
2023/06/25 08:37:10;;;;;;;4.82;3.60;;;;;;;;;;5076519;28;20044;-51
2023/06/25 08:39:36;;;;;;;6.03;4.00;;;;;;;;;;5077584;28;20135;-51
2023/06/25 08:42:03;;;;;;;7.63;4.05;;;;;;;;;;5076544;28;20032;-51
2023/06/25 08:44:29;;;;;;;4.88;3.83;;;;;;;;;;5077514;28;20705;-51
2023/06/25 08:46:55;;;;;;;12.80;4.57;;;;;;;;;;5076895;28;20689;-51
2023/06/25 08:49:23;;;;;;;6.53;4.22;;;;;;;;;;5077419;28;20119;-53
2023/06/25 08:51:52;;;;;;;7.53;3.65;;;;;;;;;;5077037;28;20049;-51
2023/06/25 08:54:18;;;;;;;4.80;3.78;;;;;;;;;;5076640;28;20071;-51
2023/06/25 08:56:44;;;;;;;5.78;3.65;;;;;;;;;;5076963;28;20392;-51
2023/06/25 08:59:10;;;;;;;8.25;3.60;;;;;;;;;;5078079;28;20213;-51
2023/06/25 09:01:36;;;;;;;9.98;4.25;;;;;;;;;;5076993;28;20233;-51
2023/06/25 09:04:02;;;;;;;6.53;3.83;;;;;;;;;;5077688;28;20053;-51
2023/06/25 09:06:28;;;;;;;5.68;3.47;;;;;;;;;;5076538;28;20496;-51
2023/06/25 09:08:54;;;;;;;6.55;3.97;;;;;;;;;;5077117;28;20043;-51
2023/06/25 09:11:20;;;;;;;7.03;4.00;;;;;;;;;;5076200;28;20044;-51
2023/06/25 09:13:46;;;;;;;8.45;3.85;;;;;;;;;;5076797;28;20044;-51
2023/06/25 09:16:13;;;;;;;8.57;4.07;;;;;;;;;;5074689;28;20455;-51
2023/06/25 09:18:39;;;;;;;6.82;3.53;;;;;;;;;;5074384;28;20085;-52
2023/06/25 09:21:06;;;;;;;5.18;3.45;;;;;;;;;;5091297;27;20037;-51
2023/06/25 09:23:32;;;;;;;7.00;3.72;;;;;;;;;;5073936;28;20041;-51
2023/06/25 09:25:58;;;;;;;4.70;3.53;;;;;;;;;;5074547;28;20043;-51
2023/06/25 09:28:25;;;;;;;5.65;3.47;;;;;;;;;;5076601;28;20045;-51
2023/06/25 09:30:55;;;;;;;7.70;3.72;;;;;;;;;;5076656;28;20041;-51
2023/06/25 09:33:22;;;;;;;7.65;4.20;;;;;;;;;;5075182;28;20049;-51
2023/06/25 09:35:48;;;;;;;5.82;3.95;;;;;;;;;;5076638;28;20043;-52
2023/06/25 09:38:14;;;;;;;4.50;3.25;;;;;;;;;;5092179;27;20044;-51
2023/06/25 09:40:40;;;;;;;5.45;3.92;;;;;;;;;;5075867;28;20520;-51
2023/06/25 09:43:06;;;;;;;5.32;3.42;;;;;;;;;;5075883;28;20075;-51
2023/06/25 09:45:33;;;;;;;7.60;3.65;;;;;;;;;;5076568;28;20090;-51
2023/06/25 09:47:59;;;;;;;5.38;3.47;;;;;;;;;;5091336;27;20037;-51
2023/06/25 09:50:35;;;;;;;5.68;3.20;;;;;;;;;;5076883;28;20118;-51
2023/06/25 09:53:03;;;;;;;5.68;4.40;;;;;;;;;;5076273;28;20129;-51
2023/06/25 09:55:30;;;;;;;8.40;3.65;;;;;;;;;;5076325;28;20041;-51
2023/06/25 09:57:57;;;;;;;5.65;3.05;;;;;;;;;;5076057;28;20041;-51
2023/06/25 10:00:24;;;;;;;4.40;3.85;;;;;;;;;;5076179;28;20041;-52
2023/06/25 10:02:52;;;;;;;5.45;4.50;;;;;;;;;;5076207;28;20124;-51
2023/06/25 10:05:18;;;;;;;7.25;3.97;;;;;;;;;;5075738;28;20493;-51
2023/06/25 10:07:44;;;;;;;4.93;3.65;;;;;;;;;;5079481;28;20067;-51
2023/06/25 10:10:20;;;;;;;6.75;4.05;;;;;;;;;;5078989;28;20463;-51
2023/06/25 10:12:48;;;;;;;5.35;3.42;;;;;;;;;;5078832;28;20083;-51
2023/06/25 10:15:14;;;;;;;5.07;3.03;;;;;;;;;;5079427;28;20628;-51
2023/06/25 10:17:52;;;;;;;4.53;3.15;;;;;;;;;;5079521;28;20049;-51
2023/06/25 10:20:45;;;;;;;8.30;4.55;;;;;;;;;;5079565;28;20515;-51
2023/06/25 10:23:12;;;;;;;5.50;3.55;;;;;;;;;;5077892;28;20052;-51
2023/06/25 10:25:52;;;;;;;7.53;4.82;;;;;;;;;;5078946;28;20049;-51
2023/06/25 10:28:18;;;;;;;5.85;4.18;;;;;;;;;;5079411;28;20128;-51
2023/06/25 10:30:48;;;;;;;6.05;3.65;;;;;;;;;;5078237;28;20170;-52
2023/06/25 10:33:15;;;;;;;5.00;3.13;;;;;;;;;;5079696;28;20041;-51
2023/06/25 10:35:43;;;;;;;5.50;3.78;;;;;;;;;;5094483;27;20126;-51
2023/06/25 10:38:09;;;;;;;7.20;3.67;;;;;;;;;;5079988;28;20056;-51
2023/06/25 10:40:36;;;;;;;6.60;4.45;;;;;;;;;;5079444;28;20153;-51
2023/06/25 10:43:02;;;;;;;8.85;5.00;;;;;;;;;;5079421;28;20083;-51
2023/06/25 10:45:28;;;;;;;5.70;3.78;;;;;;;;;;5079472;28;20531;-51
2023/06/25 10:48:05;;;;;;;7.65;3.75;;;;;;;;;;5079117;28;20503;-52
2023/06/25 10:50:34;;;;;;;5.72;4.45;;;;;;;;;;5079888;27;20113;-52
2023/06/25 10:53:01;;;;;;;5.70;3.55;;;;;;;;;;5078568;28;20052;-52
2023/06/25 10:55:27;;;;;;;6.55;3.80;;;;;;;;;;5079373;28;20582;-51
2023/06/25 10:57:54;;;;;;;5.53;4.03;;;;;;;;;;5079510;28;20041;-52
2023/06/25 11:00:24;;;;;;;4.72;3.63;;;;;;;;;;5078524;28;20039;-51
2023/06/25 11:02:54;;;;;;;8.13;3.92;;;;;;;;;;5078263;28;20055;-52
2023/06/25 11:05:21;;;;;;;6.38;3.72;;;;;;;;;;5078408;28;20041;-52
2023/06/25 11:07:56;;;;;;;6.47;3.53;;;;;;;;;;5078254;28;20645;-52
2023/06/25 11:10:23;;;;;;;5.63;3.72;;;;;;;;;;5078754;28;20048;-52
2023/06/25 11:12:49;;;;;;;4.93;3.70;;;;;;;;;;5078248;28;20049;-52
2023/06/25 11:15:17;;;;;;;4.50;3.45;;;;;;;;;;5092679;27;20559;-52
2023/06/25 11:17:43;;;;;;;5.75;3.97;;;;;;;;;;5077856;28;20040;-52
2023/06/25 11:20:09;;;;;;;7.53;4.03;;;;;;;;;;5078932;28;20040;-52
2023/06/25 11:22:44;;;;;;;4.90;3.58;;;;;;;;;;5078124;28;20045;-52
2023/06/25 11:25:14;;;;;;;5.05;3.38;;;;;;;;;;5078233;27;20144;-51
2023/06/25 11:27:40;;;;;;;5.47;3.75;;;;;;;;;;5078249;28;20582;-52
2023/06/25 11:30:08;;;;;;;5.60;3.80;;;;;;;;;;5078530;28;20569;-51
2023/06/25 11:32:35;;;;;;;6.55;4.57;;;;;;;;;;5077116;28;20459;-52
2023/06/25 11:35:08;;;;;;;4.93;3.70;;;;;;;;;;5078044;28;20491;-52
2023/06/25 11:37:42;;;;;;;5.43;3.75;;;;;;;;;;5077942;28;20044;-52
2023/06/25 11:40:09;;;;;;;8.05;4.03;;;;;;;;;;5077288;28;20040;-52
2023/06/25 11:42:40;;;;;;;4.95;3.80;;;;;;;;;;5077787;28;20593;-52
2023/06/25 11:45:07;;;;;;;5.77;3.17;;;;;;;;;;5077859;28;20539;-52
2023/06/25 11:47:33;;;;;;;5.47;3.85;;;;;;;;;;5078350;28;20269;-52
2023/06/25 11:50:00;;;;;;;5.50;3.50;;;;;;;;;;5077750;28;20834;-52
2023/06/25 11:52:26;;;;;;;5.15;3.80;;;;;;;;;;5078271;28;20051;-52
2023/06/25 11:54:52;;;;;;;6.28;3.58;;;;;;;;;;5077221;28;20094;-52
2023/06/25 11:57:18;;;;;;;4.85;3.40;;;;;;;;;;5070320;28;20041;-51
2023/06/25 11:59:44;;;;;;;5.07;3.20;;;;;;;;;;5077792;28;20107;-52
2023/06/25 12:02:11;;;;;;;5.55;4.18;;;;;;;;;;5077479;28;21024;-52
2023/06/25 12:04:38;;;;;;;5.68;3.28;;;;;;;;;;5077498;28;20052;-52
2023/06/25 12:07:04;;;;;;;4.60;3.55;;;;;;;;;;5077466;28;20045;-52
2023/06/25 12:09:30;;;;;;;5.30;3.60;;;;;;;;;;5077917;28;20037;-52
2023/06/25 12:11:56;;;;;;;5.15;3.78;;;;;;;;;;5077482;28;20049;-52
2023/06/25 12:14:22;;;;;;;8.95;3.72;;;;;;;;;;5077614;28;20123;-52
2023/06/25 12:16:48;;;;;;;6.10;4.05;;;;;;;;;;5076944;28;20037;-52
2023/06/25 12:19:15;;;;;;;6.38;4.55;;;;;;;;;;5078520;28;20040;-52
2023/06/25 12:21:41;;;;;;;5.43;4.18;;;;;;;;;;5077716;28;20048;-52
2023/06/25 12:24:07;;;;;;;6.53;4.03;;;;;;;;;;5077302;28;20084;-52
2023/06/25 12:26:33;;;;;;;6.20;4.32;;;;;;;;;;5077981;27;20566;-52
2023/06/25 12:29:01;;;;;;;7.03;3.55;;;;;;;;;;5077320;28;20068;-52
2023/06/25 12:31:27;;;;;;;5.63;3.67;;;;;;;;;;5078199;28;20082;-52
2023/06/25 12:33:53;;;;;;;5.85;3.75;;;;;;;;;;5092636;27;20036;-52
2023/06/25 12:36:19;;;;;;;5.90;3.40;;;;;;;;;;5070066;28;20192;-52
2023/06/25 12:38:45;;;;;;;6.03;3.83;;;;;;;;;;5068486;28;20052;-52
2023/06/25 12:41:11;;;;;;;5.75;3.85;;;;;;;;;;5078001;28;20044;-52
2023/06/25 12:43:37;;;;;;;4.75;3.28;;;;;;;;;;5076674;28;20040;-52
2023/06/25 12:46:05;;;;;;;5.60;3.92;;;;;;;;;;5077667;28;20093;-52
2023/06/25 12:48:31;;;;;;;6.13;3.88;;;;;;;;;;5076076;28;20044;-51
2023/06/25 12:50:57;;;;;;;7.40;3.78;;;;;;;;;;5076448;28;20119;-52
2023/06/25 12:53:23;;;;;;;4.13;3.55;;;;;;;;;;5076417;27;20139;-52
2023/06/25 12:55:49;;;;;;;6.07;3.88;;;;;;;;;;5076509;28;20127;-52
2023/06/25 12:58:15;;;;;;;5.78;3.92;;;;;;;;;;5076443;28;20044;-52
2023/06/25 13:00:41;;;;;;;4.75;3.40;;;;;;;;;;5076796;28;20090;-52
2023/06/25 13:03:08;;;;;;;4.13;3.25;;;;;;;;;;5074721;28;20040;-52
2023/06/25 13:05:34;;;;;;;5.95;3.90;;;;;;;;;;5077044;28;20049;-52
2023/06/25 13:08:00;;;;;;;5.07;3.30;;;;;;;;;;5075910;28;20645;-52
2023/06/25 13:10:26;;;;;;;6.53;4.32;;;;;;;;;;5077195;28;20044;-52
2023/06/25 13:12:52;;;;;;;8.70;3.55;;;;;;;;;;5076159;28;20049;-52
2023/06/25 13:15:18;;;;;;;4.95;4.07;;;;;;;;;;5077141;28;20040;-52
2023/06/25 13:17:45;;;;;;;5.68;3.75;;;;;;;;;;5077218;28;20119;-52
2023/06/25 13:20:11;;;;;;;6.22;4.00;;;;;;;;;;5076393;28;20041;-52
2023/06/25 13:22:37;;;;;;;5.15;3.75;;;;;;;;;;5076159;28;20047;-52
2023/06/25 13:25:03;;;;;;;8.88;4.20;;;;;;;;;;5076595;28;20049;-52
2023/06/25 13:27:29;;;;;;;12.68;4.07;;;;;;;;;;5077047;28;20123;-52
2023/06/25 13:29:55;;;;;;;5.75;3.40;;;;;;;;;;5068582;28;20048;-52
2023/06/25 13:32:22;;;;;;;8.52;4.38;;;;;;;;;;5076327;28;20045;-52
2023/06/25 13:34:48;;;;;;;6.45;3.80;;;;;;;;;;5076945;28;20599;-53
2023/06/25 13:37:15;;;;;;;6.95;4.10;;;;;;;;;;5076619;28;20805;-52
2023/06/25 13:39:41;;;;;;;4.70;3.50;;;;;;;;;;5076760;28;20884;-52
2023/06/25 13:42:07;;;;;;;5.88;4.05;;;;;;;;;;5077768;27;20147;-52
2023/06/25 13:44:33;;;;;;;4.65;3.28;;;;;;;;;;5079444;28;20044;-52
2023/06/25 13:46:59;;;;;;;4.75;3.50;;;;;;;;;;5079385;28;20043;-52
2023/06/25 13:49:25;;;;;;;7.07;3.75;;;;;;;;;;5079924;28;20041;-52
2023/06/25 13:51:51;;;;;;;5.03;3.60;;;;;;;;;;5079803;28;20524;-52
2023/06/25 13:54:18;;;;;;;5.95;4.25;;;;;;;;;;5095487;27;20036;-52
2023/06/25 13:56:44;;;;;;;6.28;3.35;;;;;;;;;;5080083;28;20055;-52
2023/06/25 13:59:10;;;;;;;5.50;3.65;;;;;;;;;;5080265;28;20701;-52
2023/06/25 14:01:40;;;;;;;5.20;3.53;;;;;;;;;;5079718;28;20555;-52
2023/06/25 14:04:06;;;;;;;6.38;3.80;;;;;;;;;;5080193;28;20106;-52
2023/06/25 14:06:32;;;;;;;6.93;3.95;;;;;;;;;;5071846;28;20181;-52
2023/06/25 14:08:58;;;;;;;5.82;3.75;;;;;;;;;;5080514;28;20049;-52
2023/06/25 14:11:25;;;;;;;4.38;3.50;;;;;;;;;;5079178;28;20124;-52
2023/06/25 14:13:52;;;;;;;5.20;3.80;;;;;;;;;;5080110;28;20122;-52
2023/06/25 14:16:18;;;;;;;5.15;3.45;;;;;;;;;;5079695;28;20044;-52
2023/06/25 14:18:44;;;;;;;5.43;3.83;;;;;;;;;;5079319;28;20133;-52
2023/06/25 14:21:11;;;;;;;5.47;3.50;;;;;;;;;;5078446;28;20068;-52
2023/06/25 14:23:37;;;;;;;4.80;3.00;;;;;;;;;;5079251;28;20536;-52
2023/06/25 14:26:03;;;;;;;6.22;3.42;;;;;;;;;;5078902;28;20041;-52
2023/06/25 14:28:29;;;;;;;4.72;3.53;;;;;;;;;;5079690;28;20222;-52
2023/06/25 14:30:56;;;;;;;8.98;4.20;;;;;;;;;;5078107;28;20044;-52
2023/06/25 14:33:22;;;;;;;5.72;4.15;;;;;;;;;;5095378;27;20032;-52
2023/06/25 14:35:49;;;;;;;5.10;3.90;;;;;;;;;;5078221;28;20503;-52
2023/06/25 14:38:15;;;;;;;9.23;3.60;;;;;;;;;;5079115;28;20056;-52